Time;durP1;ratioP1;P1;durP2;ratioP2;P2;SDS_P1;SDS_P2;PMS_P1;PMS_P2;Temp;Humidity;BMP_temperature;BMP_pressure;BME280_temperature;BME280_humidity;BME280_pressure;Samples;Min_cycle;Max_cycle;Signal;HPM_P1;HPM_P2
2022/06/23 00:00:01;;;;;;;14.80;11.20;;;18.20;99.90;19.80;96459.00;;;;5070159;28;20220;-66
2022/06/23 00:02:50;;;;;;;11.97;10.07;;;18.10;99.90;19.80;96456.00;;;;5071026;28;20281;-66
2022/06/23 00:05:41;;;;;;;18.03;10.27;;;18.10;99.90;19.80;96460.00;;;;5056578;28;20675;-66
2022/06/23 00:08:30;;;;;;;14.30;11.37;;;18.20;99.90;19.80;96460.00;;;;5069046;28;20196;-66
2022/06/23 00:11:25;;;;;;;14.07;11.07;;;18.20;99.90;19.70;96461.00;;;;5070962;28;20207;-66
2022/06/23 00:14:15;;;;;;;12.23;10.17;;;18.10;99.90;19.70;96468.00;;;;5061006;28;20737;-66
2022/06/23 00:17:17;;;;;;;13.57;10.77;;;18.10;99.90;19.70;96476.00;;;;5057696;28;20210;-66
2022/06/23 00:20:14;;;;;;;15.27;11.20;;;18.20;99.90;19.40;96484.00;;;;5069543;28;20607;-66
2022/06/23 00:23:19;;;;;;;11.90;10.40;;;18.10;99.90;19.00;96490.00;;;;5069666;28;20262;-67
2022/06/23 00:26:14;;;;;;;12.63;11.13;;;17.90;99.90;19.10;96504.00;;;;5070730;28;20687;-65
2022/06/23 00:29:10;;;;;;;16.33;12.43;;;18.00;99.90;19.10;96504.00;;;;5069747;28;20207;-65
2022/06/23 00:32:04;;;;;;;13.23;11.20;;;18.10;99.90;19.50;96508.00;;;;5059874;28;20200;-65
2022/06/23 00:34:59;;;;;;;14.57;8.87;;;17.80;99.90;19.60;96503.00;;;;5070253;28;20223;-65
2022/06/23 00:37:50;;;;;;;11.23;10.03;;;17.90;99.90;19.50;96504.00;;;;5069756;28;20274;-65
2022/06/23 00:40:43;;;;;;;12.43;9.53;;;18.10;99.90;19.60;96499.00;;;;5069184;28;20211;-65
2022/06/23 00:43:33;;;;;;;12.27;10.20;;;17.90;99.90;19.60;96511.00;;;;5068941;28;20603;-65
2022/06/23 00:46:28;;;;;;;11.07;7.90;;;18.00;99.90;19.70;96499.00;;;;5069091;28;20204;-66
2022/06/23 00:49:25;;;;;;;10.47;7.87;;;18.10;99.90;19.70;96506.00;;;;5068732;28;20546;-65
2022/06/23 00:52:20;;;;;;;11.53;9.27;;;18.10;99.90;19.80;96507.00;;;;5069324;28;20202;-65
2022/06/23 00:55:16;;;;;;;11.73;10.33;;;18.10;99.90;19.80;96500.00;;;;5069112;28;20227;-65
2022/06/23 00:58:18;;;;;;;11.80;9.00;;;18.10;99.90;19.80;96493.00;;;;5069580;28;20204;-65
2022/06/23 01:01:16;;;;;;;11.17;9.10;;;18.10;99.90;19.70;96493.00;;;;5069741;28;20212;-65
2022/06/23 01:04:18;;;;;;;10.57;9.00;;;18.10;99.90;19.80;96502.00;;;;5068737;28;20785;-65
2022/06/23 01:07:27;;;;;;;11.77;8.97;;;18.10;99.90;19.70;96503.00;;;;5068527;28;20208;-65
2022/06/23 01:10:25;;;;;;;11.50;9.40;;;18.10;99.90;19.70;96503.00;;;;5067642;28;20208;-65
2022/06/23 01:13:24;;;;;;;14.73;9.50;;;18.10;99.90;19.70;96511.00;;;;5068146;28;20204;-65
2022/06/23 01:16:18;;;;;;;13.60;9.43;;;18.30;99.90;19.60;96520.00;;;;5062948;28;20733;-65
2022/06/23 01:19:37;;;;;;;11.87;9.30;;;18.10;99.90;19.30;96514.00;;;;5069231;28;20195;-66
2022/06/23 01:22:40;;;;;;;11.40;10.17;;;18.00;99.90;19.20;96512.00;;;;5059780;28;20211;-65
2022/06/23 01:26:10;;;;;;;12.67;10.13;;;17.90;99.90;19.50;96506.00;;;;5069091;28;20230;-66
2022/06/23 01:29:05;;;;;;;11.40;10.23;;;18.00;99.90;19.60;96512.00;;;;5069214;28;20202;-65
2022/06/23 01:32:04;;;;;;;12.40;9.33;;;18.10;99.90;19.70;96513.00;;;;5069488;28;20203;-64
2022/06/23 01:34:59;;;;;;;12.60;9.37;;;18.10;99.90;19.60;96516.00;;;;5068322;28;20228;-64
2022/06/23 01:37:54;;;;;;;9.70;8.73;;;18.00;99.90;19.50;96524.00;;;;5068023;28;20218;-65
2022/06/23 01:40:58;;;;;;;11.50;9.70;;;18.10;99.90;19.50;96520.00;;;;5068028;28;20215;-65
2022/06/23 01:43:58;;;;;;;9.57;8.53;;;17.90;99.90;19.60;96537.00;;;;5068847;28;20220;-64
2022/06/23 01:46:53;;;;;;;10.67;9.07;;;18.00;99.90;19.70;96540.00;;;;5068548;28;20945;-65
2022/06/23 01:49:45;;;;;;;10.37;8.97;;;17.90;99.90;19.50;96536.00;;;;5068433;28;20200;-65
2022/06/23 01:52:35;;;;;;;11.67;9.10;;;18.00;99.90;19.60;96548.00;;;;5067890;28;20204;-65
2022/06/23 01:55:29;;;;;;;9.33;8.33;;;18.10;99.90;19.60;96545.00;;;;5068793;28;20247;-65
2022/06/23 01:58:22;;;;;;;9.63;8.20;;;18.00;99.90;19.60;96538.00;;;;5068428;28;20200;-65
2022/06/23 02:01:16;;;;;;;12.53;8.30;;;18.10;99.90;19.50;96549.00;;;;5067540;28;20559;-65
2022/06/23 02:04:16;;;;;;;8.63;7.60;;;18.00;99.90;19.60;96547.00;;;;5068033;28;20703;-65
2022/06/23 02:07:14;;;;;;;9.43;7.90;;;18.00;99.90;19.60;96547.00;;;;5068475;28;20204;-65
2022/06/23 02:10:15;;;;;;;12.53;8.90;;;18.10;99.90;19.70;96546.00;;;;5071826;28;20192;-65
2022/06/23 02:13:15;;;;;;;11.50;7.83;;;18.10;99.90;19.60;96549.00;;;;5071725;28;21694;-65
2022/06/23 02:16:12;;;;;;;10.27;7.33;;;18.00;99.90;19.50;96553.00;;;;5071033;28;20212;-65
2022/06/23 02:19:12;;;;;;;14.93;8.33;;;17.80;99.90;19.30;96556.00;;;;5072383;28;20667;-65
2022/06/23 02:22:10;;;;;;;11.90;7.97;;;18.10;99.90;19.40;96566.00;;;;5073182;28;20208;-65
2022/06/23 02:25:10;;;;;;;13.27;7.70;;;18.00;99.90;19.60;96580.00;;;;5071916;28;20220;-65
2022/06/23 02:28:11;;;;;;;9.07;7.90;;;18.00;99.90;19.60;96580.00;;;;5071103;28;20584;-65
2022/06/23 02:31:11;;;;;;;8.97;7.67;;;18.00;99.90;19.30;96584.00;;;;5071850;28;20206;-65
2022/06/23 02:34:10;;;;;;;11.17;7.47;;;18.10;99.90;19.30;96577.00;;;;5071950;28;20200;-65
2022/06/23 02:37:58;;;;;;;8.93;7.20;;;17.90;99.90;19.40;96586.00;;;;5071718;28;20581;-65
2022/06/23 02:40:50;;;;;;;10.83;7.97;;;18.00;99.90;19.30;96582.00;;;;5071662;28;20674;-65
2022/06/23 02:43:45;;;;;;;11.07;7.57;;;17.80;99.90;19.50;96588.00;;;;5072282;28;20200;-65
2022/06/23 02:46:59;;;;;;;14.70;8.33;;;18.00;99.90;19.50;96589.00;;;;5071668;28;20203;-65
2022/06/23 02:50:24;;;;;;;12.23;8.23;;;18.00;99.90;19.40;96589.00;;;;5071095;28;20215;-65
2022/06/23 02:53:35;;;;;;;9.47;7.60;;;18.00;99.90;19.40;96593.00;;;;5061915;28;20207;-65
2022/06/23 02:56:47;;;;;;;9.40;7.57;;;18.00;99.90;19.40;96602.00;;;;5072138;28;20204;-66
2022/06/23 02:59:44;;;;;;;11.23;8.77;;;18.00;99.90;19.30;96611.00;;;;5070829;28;20212;-65
2022/06/23 03:02:41;;;;;;;10.30;7.53;;;17.80;99.90;19.30;96619.00;;;;5070795;28;20643;-65
2022/06/23 03:05:41;;;;;;;8.67;7.80;;;17.90;99.90;19.30;96628.00;;;;5070867;28;20623;-65
2022/06/23 03:08:39;;;;;;;8.40;6.83;;;17.80;99.90;19.20;96635.00;;;;5070062;28;20211;-65
2022/06/23 03:11:54;;;;;;;9.77;7.57;;;17.80;99.90;19.10;96635.00;;;;5071889;28;20655;-65
2022/06/23 03:14:51;;;;;;;8.70;7.07;;;17.70;99.90;19.10;96641.00;;;;5067968;28;20228;-65
2022/06/23 03:17:47;;;;;;;8.73;7.83;;;17.70;99.90;19.20;96639.00;;;;5071132;28;20204;-65
2022/06/23 03:20:44;;;;;;;10.53;8.10;;;17.70;99.90;19.30;96646.00;;;;5070798;28;20200;-66
2022/06/23 03:23:41;;;;;;;9.47;7.33;;;17.80;99.90;19.30;96643.00;;;;5071552;28;20581;-66
2022/06/23 03:26:39;;;;;;;7.80;7.10;;;17.70;99.90;19.30;96644.00;;;;5070309;28;20697;-66
2022/06/23 03:29:37;;;;;;;12.03;7.37;;;18.00;99.90;19.20;96655.00;;;;5070578;28;20200;-65
2022/06/23 03:32:31;;;;;;;10.30;7.87;;;17.90;99.90;19.30;96651.00;;;;5071411;28;20192;-65
2022/06/23 03:35:24;;;;;;;10.00;7.03;;;17.90;99.90;19.30;96655.00;;;;5070663;28;20699;-66
2022/06/23 03:38:22;;;;;;;8.37;7.57;;;17.90;99.90;19.30;96665.00;;;;5071096;28;20196;-65
2022/06/23 03:41:37;;;;;;;9.87;7.47;;;17.80;99.90;19.20;96665.00;;;;5069929;28;20204;-66
2022/06/23 03:44:31;;;;;;;8.63;7.80;;;17.70;99.90;19.30;96666.00;;;;5071083;28;20220;-65
2022/06/23 03:47:28;;;;;;;7.73;6.87;;;17.90;99.90;19.30;96668.00;;;;5069536;28;20698;-65
2022/06/23 03:50:23;;;;;;;6.90;6.20;;;18.00;99.90;19.40;96660.00;;;;5071026;28;20215;-65
2022/06/23 03:53:18;;;;;;;8.93;7.83;;;17.70;99.90;19.40;96664.00;;;;5071115;28;20196;-65
2022/06/23 03:56:16;;;;;;;10.60;7.63;;;17.90;99.90;19.50;96670.00;;;;5070046;28;20232;-66
2022/06/23 03:59:15;;;;;;;9.40;8.07;;;17.90;99.90;19.50;96671.00;;;;5071152;28;20212;-66
2022/06/23 04:02:13;;;;;;;8.53;6.73;;;17.90;99.90;19.40;96671.00;;;;5069695;28;20222;-65
2022/06/23 04:05:18;;;;;;;9.57;7.20;;;18.10;99.90;19.40;96669.00;;;;5069156;28;20229;-65
2022/06/23 04:08:07;;;;;;;7.33;6.57;;;18.00;99.90;19.40;96679.00;;;;5064866;28;20237;-66
2022/06/23 04:11:42;;;;;;;8.20;6.77;;;17.90;99.90;19.50;96687.00;;;;5064336;28;20211;-65
2022/06/23 04:14:17;;;;;;;7.97;6.97;;;17.90;99.90;19.50;96688.00;;;;5067262;28;20203;-66
2022/06/23 04:17:15;;;;;;;10.43;7.20;;;17.80;99.90;19.70;96681.00;;;;5068616;28;20204;-66
2022/06/23 04:20:17;;;;;;;8.23;7.13;;;17.80;99.90;19.70;96682.00;;;;5069326;28;20208;-66
2022/06/23 04:23:14;;;;;;;8.03;7.23;;;18.00;99.90;19.90;96693.00;;;;5068947;28;20211;-65
2022/06/23 04:26:07;;;;;;;10.17;6.20;;;18.10;99.90;19.90;96696.00;;;;5069215;28;20232;-65
2022/06/23 04:28:59;;;;;;;11.47;6.60;;;18.20;99.90;19.80;96698.00;;;;5068953;28;20211;-66
2022/06/23 04:31:52;;;;;;;17.07;6.90;;;18.10;99.90;19.80;96701.00;;;;5069563;28;20204;-66
2022/06/23 04:34:52;;;;;;;8.03;6.23;;;18.20;99.90;19.70;96711.00;;;;5068926;28;20302;-65
2022/06/23 04:37:49;;;;;;;9.53;6.93;;;18.20;99.90;19.60;96710.00;;;;5067936;28;20184;-66
2022/06/23 04:40:49;;;;;;;7.23;6.07;;;18.10;99.90;19.50;96720.00;;;;5055190;28;20279;-65
2022/06/23 04:43:42;;;;;;;11.10;5.90;;;18.10;99.90;19.40;96720.00;;;;5059139;28;20203;-66
2022/06/23 04:46:37;;;;;;;10.83;7.93;;;18.00;99.90;19.50;96733.00;;;;5069819;28;20227;-66
2022/06/23 04:49:32;;;;;;;10.97;7.80;;;18.20;99.90;19.50;96730.00;;;;5066737;28;20215;-66
2022/06/23 04:52:29;;;;;;;6.93;6.33;;;18.10;99.90;19.30;96728.00;;;;5063516;28;20192;-66
2022/06/23 04:55:23;;;;;;;8.53;6.47;;;18.10;99.90;19.10;96735.00;;;;5066901;28;20702;-67
2022/06/23 04:58:21;;;;;;;12.77;10.33;;;18.20;99.90;19.60;96741.00;;;;5068964;28;20203;-66
2022/06/23 05:01:17;;;;;;;14.00;11.30;;;18.00;99.90;19.80;96733.00;;;;5064680;28;20237;-66
2022/06/23 05:04:11;;;;;;;18.57;12.70;;;18.20;99.90;19.80;96732.00;;;;5068564;28;20203;-66
2022/06/23 05:07:03;;;;;;;12.87;11.20;;;18.20;99.90;19.80;96727.00;;;;5064401;28;20204;-66
2022/06/23 05:09:57;;;;;;;11.37;8.60;;;18.30;99.90;20.00;96732.00;;;;5063297;28;20207;-66
2022/06/23 05:12:51;;;;;;;14.27;9.20;;;17.50;99.90;20.30;96744.00;;;;5061358;28;20196;-66
2022/06/23 05:15:49;;;;;;;11.97;7.90;;;18.40;99.90;20.50;96746.00;;;;5064573;28;20220;-66
2022/06/23 05:18:45;;;;;;;12.43;9.53;;;18.70;99.90;20.60;96747.00;;;;5068134;28;20212;-66
2022/06/23 05:21:40;;;;;;;12.37;11.13;;;18.60;99.90;20.80;96751.00;;;;5069266;28;20222;-66
2022/06/23 05:24:39;;;;;;;10.13;9.13;;;18.60;99.90;20.80;96761.00;;;;5066188;28;20223;-67
2022/06/23 05:27:32;;;;;;;9.50;6.73;;;18.90;99.90;20.70;96753.00;;;;5065472;28;20216;-66
2022/06/23 05:30:28;;;;;;;7.10;6.43;;;18.90;99.90;20.60;96753.00;;;;5064091;28;20215;-66
2022/06/23 05:33:21;;;;;;;7.77;6.03;;;19.10;99.90;20.60;96752.00;;;;5067073;28;20200;-66
2022/06/23 05:36:21;;;;;;;12.00;5.83;;;19.00;99.90;20.60;96757.00;;;;5062458;28;20228;-66
2022/06/23 05:39:20;;;;;;;8.23;6.90;;;19.00;99.90;20.60;96754.00;;;;5063577;28;20201;-66
2022/06/23 05:42:17;;;;;;;16.10;6.37;;;18.90;99.90;20.70;96753.00;;;;5062453;28;20202;-66
2022/06/23 05:45:16;;;;;;;8.07;6.90;;;19.00;99.90;20.90;96749.00;;;;5070510;28;20220;-66
2022/06/23 05:48:08;;;;;;;7.27;6.40;;;19.10;99.90;20.90;96752.00;;;;5066453;28;20203;-66
2022/06/23 05:51:01;;;;;;;9.70;5.97;;;19.10;99.90;20.90;96746.00;;;;5070951;28;20216;-66
2022/06/23 05:54:10;;;;;;;6.67;5.90;;;19.20;99.90;21.00;96758.00;;;;5070658;28;20623;-66
2022/06/23 05:57:14;;;;;;;11.47;5.80;;;19.30;99.90;21.30;96750.00;;;;5068634;28;20204;-66
2022/06/23 06:00:19;;;;;;;9.07;6.20;;;19.30;99.90;21.60;96755.00;;;;5066066;28;20208;-67
2022/06/23 06:03:15;;;;;;;6.53;5.93;;;19.40;99.90;21.80;96753.00;;;;5071464;28;20214;-66
2022/06/23 06:06:04;;;;;;;11.97;6.40;;;19.80;99.90;21.80;96753.00;;;;5061950;28;20243;-66
2022/06/23 06:12:09;;;;;;;10.50;7.20;;;19.90;99.90;22.00;96759.00;;;;5072212;28;20234;-66
2022/06/23 06:15:01;;;;;;;10.97;6.93;;;19.80;99.90;22.30;96764.00;;;;5071971;28;20228;-67
2022/06/23 06:18:00;;;;;;;12.83;6.40;;;20.00;99.90;22.40;96773.00;;;;5071935;28;20204;-66
2022/06/23 06:20:49;;;;;;;11.60;7.43;;;20.20;99.90;22.60;96758.00;;;;5063973;28;20211;-66
2022/06/23 06:23:45;;;;;;;14.63;7.23;;;20.40;99.90;22.90;96769.00;;;;5072626;28;20219;-67
2022/06/23 06:26:40;;;;;;;8.97;6.50;;;20.60;99.90;23.10;96756.00;;;;5071995;28;20226;-66
2022/06/23 06:29:34;;;;;;;6.77;5.73;;;20.70;99.90;23.50;96754.00;;;;5069638;28;20204;-66
2022/06/23 06:32:34;;;;;;;8.63;6.10;;;21.10;99.90;24.00;96763.00;;;;5071907;28;20713;-66
2022/06/23 06:35:35;;;;;;;8.67;6.37;;;21.30;99.90;23.50;96776.00;;;;5066247;28;20216;-66
2022/06/23 06:38:28;;;;;;;6.20;5.63;;;21.50;99.90;23.00;96774.00;;;;5065226;28;20574;-66
2022/06/23 06:41:17;;;;;;;8.53;6.33;;;21.40;99.90;23.30;96771.00;;;;5064463;28;20196;-66
2022/06/23 06:44:07;;;;;;;7.20;6.47;;;21.30;99.90;23.40;96766.00;;;;5071693;28;20223;-66
2022/06/23 06:46:55;;;;;;;9.57;6.63;;;21.50;99.90;23.50;96778.00;;;;5070199;28;20235;-66
2022/06/23 06:49:45;;;;;;;9.23;6.37;;;21.40;99.90;23.70;96787.00;;;;5067792;28;20207;-66
2022/06/23 06:52:36;;;;;;;7.70;7.00;;;21.60;99.90;23.50;96788.00;;;;5059061;28;20200;-66
2022/06/23 06:55:30;;;;;;;12.97;7.87;;;21.50;99.90;23.40;96785.00;;;;5065583;28;20721;-66
2022/06/23 06:58:27;;;;;;;14.00;8.80;;;21.40;99.90;23.30;96785.00;;;;5067519;28;20204;-66
2022/06/23 07:01:21;;;;;;;9.67;6.63;;;21.70;99.90;23.60;96783.00;;;;5069184;28;20578;-66
2022/06/23 07:04:24;;;;;;;11.67;7.00;;;21.50;99.90;23.50;96792.00;;;;5066422;28;20207;-66
2022/06/23 07:07:22;;;;;;;12.83;8.50;;;21.60;99.90;22.80;96787.00;;;;5068942;28;20231;-66
2022/06/23 07:10:23;;;;;;;13.93;9.13;;;21.50;99.90;22.60;96780.00;;;;5067287;28;20200;-66
2022/06/23 07:13:22;;;;;;;16.90;9.03;;;21.20;99.90;23.10;96787.00;;;;5063491;28;20664;-66
2022/06/23 07:16:18;;;;;;;16.47;9.30;;;21.30;99.90;23.00;96782.00;;;;5070331;28;20227;-66
2022/06/23 07:19:16;;;;;;;11.57;8.63;;;21.30;99.90;22.90;96783.00;;;;5068835;28;20204;-66
2022/06/23 07:22:14;;;;;;;11.43;7.83;;;21.40;99.90;23.10;96785.00;;;;5066524;28;20207;-67
2022/06/23 07:25:11;;;;;;;15.13;9.87;;;21.50;99.90;22.60;96790.00;;;;5068057;28;20230;-66
2022/06/23 07:28:07;;;;;;;10.67;8.90;;;21.50;99.90;22.10;96785.00;;;;5068829;28;20223;-63
2022/06/23 07:31:00;;;;;;;11.80;7.90;;;21.30;99.90;22.60;96793.00;;;;5063788;28;20200;-66
2022/06/23 07:33:55;;;;;;;9.77;7.73;;;21.30;99.90;22.30;96796.00;;;;5070652;28;20203;-65
2022/06/23 07:36:50;;;;;;;13.20;8.67;;;21.20;99.90;22.40;96796.00;;;;5067156;28;20224;-66
2022/06/23 07:39:40;;;;;;;10.77;8.00;;;21.10;99.90;22.20;96789.00;;;;5066751;28;20272;-67
2022/06/23 07:42:47;;;;;;;10.83;8.17;;;21.10;99.90;22.70;96787.00;;;;5070391;28;20216;-66
2022/06/23 07:45:47;;;;;;;10.13;7.53;;;21.20;99.90;22.90;96788.00;;;;5070315;28;20718;-66
2022/06/23 07:48:38;;;;;;;12.23;8.87;;;21.30;99.90;23.40;96788.00;;;;5060510;28;20209;-66
2022/06/23 07:51:27;;;;;;;14.57;8.50;;;21.20;99.90;23.80;96793.00;;;;5057506;28;20200;-66
2022/06/23 07:54:21;;;;;;;9.33;7.40;;;21.40;99.90;24.20;96796.00;;;;5065250;28;20232;-66
2022/06/23 07:57:10;;;;;;;8.50;7.27;;;21.60;99.90;24.50;96791.00;;;;5065649;28;20198;-66
2022/06/23 08:00:04;;;;;;;9.27;6.77;;;21.90;99.90;24.80;96788.00;;;;5065102;28;20208;-66
2022/06/23 08:03:00;;;;;;;9.80;7.27;;;22.10;99.90;24.70;96787.00;;;;5064090;28;20981;-66
2022/06/23 08:05:58;;;;;;;9.73;7.03;;;22.50;99.90;24.90;96800.00;;;;5062803;28;20231;-66
2022/06/23 08:08:50;;;;;;;8.00;7.17;;;22.60;99.90;25.00;96793.00;;;;5064573;28;20578;-66
2022/06/23 08:18:11;;;;;;;12.13;7.23;;;23.00;99.90;24.90;96800.00;;;;5064809;28;20231;-66
2022/06/23 08:21:08;;;;;;;9.33;6.43;;;22.80;99.90;25.00;96804.00;;;;5066010;28;20196;-66
2022/06/23 08:24:07;;;;;;;12.20;6.90;;;22.80;99.90;24.80;96796.00;;;;5062821;28;20746;-66
2022/06/23 08:27:02;;;;;;;10.50;7.03;;;22.80;99.90;24.80;96799.00;;;;5063945;28;20325;-67
2022/06/23 08:29:56;;;;;;;9.97;6.70;;;22.90;99.90;24.80;96808.00;;;;5064371;28;20203;-66
2022/06/23 08:32:49;;;;;;;7.63;6.93;;;23.00;99.90;25.00;96797.00;;;;5065340;28;20698;-66
2022/06/23 08:35:45;;;;;;;10.67;6.90;;;22.90;99.90;25.20;96805.00;;;;5063255;28;20236;-66
2022/06/23 08:38:41;;;;;;;18.83;7.03;;;23.00;99.90;25.00;96803.00;;;;5063882;28;20711;-66
2022/06/23 08:41:41;;;;;;;8.97;7.60;;;23.00;99.90;25.10;96804.00;;;;5063580;28;20210;-66
2022/06/23 08:45:01;;;;;;;7.57;6.87;;;23.10;99.90;25.10;96802.00;;;;5065931;28;20238;-66
2022/06/23 08:47:55;;;;;;;9.70;8.37;;;23.10;99.90;25.20;96805.00;;;;5064168;28;20227;-66
2022/06/23 08:50:52;;;;;;;8.77;7.17;;;23.10;99.90;25.40;96802.00;;;;5057563;28;20205;-66
2022/06/23 08:53:55;;;;;;;8.07;6.50;;;23.20;99.90;25.50;96810.00;;;;5055714;28;20213;-66
2022/06/23 08:56:51;;;;;;;8.67;6.40;;;23.20;99.90;25.60;96800.00;;;;5065873;28;20204;-66
2022/06/23 08:59:45;;;;;;;10.37;6.30;;;23.40;99.90;25.80;96808.00;;;;5064110;28;20234;-66
2022/06/23 09:02:43;;;;;;;10.30;7.10;;;23.50;99.90;25.80;96808.00;;;;5063053;28;20199;-67
2022/06/23 09:06:03;;;;;;;9.33;6.10;;;23.60;99.90;25.80;96809.00;;;;5064210;28;20275;-67
2022/06/23 09:09:05;;;;;;;8.23;5.90;;;23.80;99.90;26.10;96814.00;;;;5064101;28;20220;-66
2022/06/23 09:12:04;;;;;;;11.63;8.90;;;23.80;99.90;26.10;96814.00;;;;5061350;28;20198;-67
2022/06/23 09:15:38;;;;;;;10.30;6.70;;;24.00;99.90;26.10;96813.00;;;;5066235;28;20222;-67
2022/06/23 09:18:57;;;;;;;8.00;6.20;;;24.10;99.90;26.40;96794.00;;;;5064077;28;20583;-67
2022/06/23 09:22:06;;;;;;;6.93;6.23;;;24.20;99.90;26.50;96795.00;;;;5060674;28;20237;-65
2022/06/23 09:25:06;;;;;;;6.77;6.03;;;24.30;99.90;26.90;96813.00;;;;5063335;28;20232;-66
2022/06/23 09:28:18;;;;;;;8.47;5.57;;;24.50;99.90;26.80;96807.00;;;;5064815;28;20221;-67
2022/06/23 09:31:22;;;;;;;7.30;6.47;;;24.50;99.90;26.70;96808.00;;;;5067006;28;20210;-67
2022/06/23 09:34:21;;;;;;;10.70;5.57;;;24.70;99.90;27.10;96786.00;;;;5066533;28;20213;-66
2022/06/23 09:37:47;;;;;;;8.27;6.00;;;24.70;99.90;27.90;96803.00;;;;5068962;28;20707;-67
2022/06/23 09:40:47;;;;;;;7.40;5.53;;;25.20;99.90;27.70;96797.00;;;;5064611;28;20214;-67
2022/06/23 09:44:08;;;;;;;7.33;5.90;;;25.40;99.90;27.80;96790.00;;;;5066807;28;20213;-66
2022/06/23 09:47:22;;;;;;;6.97;6.13;;;25.40;99.90;28.50;96795.00;;;;5062078;28;20195;-67
2022/06/23 09:50:33;;;;;;;12.77;6.70;;;25.70;99.90;28.40;96797.00;;;;5061561;28;20213;-66
2022/06/23 09:53:48;;;;;;;11.83;5.50;;;25.90;99.90;28.10;96798.00;;;;5064070;28;20200;-67
2022/06/23 09:57:26;;;;;;;9.33;6.27;;;25.90;99.90;27.30;96788.00;;;;5065191;28;20590;-67
2022/06/23 10:00:20;;;;;;;7.17;4.97;;;25.80;99.90;27.70;96796.00;;;;5064604;28;20202;-67
2022/06/23 10:03:25;;;;;;;6.87;4.43;;;25.70;99.90;27.50;96797.00;;;;5067692;28;20691;-67
2022/06/23 10:06:37;;;;;;;6.50;5.13;;;25.60;99.90;27.70;96805.00;;;;5067024;28;20231;-66
2022/06/23 10:09:45;;;;;;;6.40;4.90;;;25.50;99.90;27.60;96798.00;;;;5063452;28;20211;-67
2022/06/23 10:13:25;;;;;;;9.50;5.33;;;25.60;99.90;28.00;96802.00;;;;5062725;28;20203;-67
2022/06/23 10:16:37;;;;;;;7.73;5.07;;;25.70;99.90;27.80;96797.00;;;;5060655;28;20238;-67
2022/06/23 10:19:56;;;;;;;6.00;4.83;;;25.70;99.90;28.60;96750.00;;;;5062267;28;20194;-67
2022/06/23 10:23:01;;;;;;;9.53;5.07;;;25.80;99.90;29.10;96746.00;;;;5063896;28;20224;-67
2022/06/23 10:26:15;;;;;;;5.77;4.77;;;26.80;99.90;30.30;96749.00;;;;5063646;28;20230;-68
2022/06/23 10:29:39;;;;;;;6.77;4.10;;;27.00;99.90;29.60;96790.00;;;;5062509;28;20238;-68
2022/06/23 10:33:10;;;;;;;7.03;4.97;;;27.30;99.90;29.80;96786.00;;;;5061056;28;20212;-68
2022/06/23 10:36:22;;;;;;;6.13;5.47;;;27.40;99.90;30.20;96750.00;;;;5042283;28;20220;-68
2022/06/23 10:39:33;;;;;;;7.97;4.63;;;27.50;99.90;29.10;96763.00;;;;5066785;28;20213;-67
2022/06/23 10:42:47;;;;;;;6.20;4.80;;;27.80;99.90;29.80;96793.00;;;;5067638;28;20198;-67
2022/06/23 10:45:45;;;;;;;4.97;4.20;;;27.80;99.90;29.90;96793.00;;;;5061626;28;20230;-68
2022/06/23 10:49:01;;;;;;;7.17;5.10;;;27.70;99.90;29.10;96804.00;;;;5065604;28;20230;-68
2022/06/23 10:52:15;;;;;;;4.17;3.83;;;27.50;99.90;27.60;96783.00;;;;5063139;28;20538;-67
2022/06/23 10:55:22;;;;;;;5.90;4.30;;;27.10;99.90;28.20;96746.00;;;;5063509;28;20301;-67
2022/06/23 10:58:46;;;;;;;7.30;4.53;;;26.70;99.90;28.80;96790.00;;;;5063821;28;20223;-68
2022/06/23 11:02:04;;;;;;;6.37;4.37;;;26.80;99.90;26.90;96788.00;;;;5067122;28;20208;-67
2022/06/23 11:05:15;;;;;;;4.80;4.30;;;26.50;99.90;25.30;96805.00;;;;5062802;28;20698;-65
2022/06/23 11:08:35;;;;;;;6.97;4.17;;;25.40;99.90;25.10;96812.00;;;;5060891;28;20599;-67
2022/06/23 11:11:52;;;;;;;4.40;3.67;;;24.70;99.90;24.50;96814.00;;;;5056292;28;20710;-65
2022/06/23 11:15:00;;;;;;;6.07;4.40;;;24.20;99.90;24.00;96811.00;;;;5063581;28;20232;-64
2022/06/23 11:18:09;;;;;;;4.60;4.20;;;23.80;99.90;23.20;96811.00;;;;5067606;28;20591;-65
2022/06/23 11:21:25;;;;;;;5.60;4.07;;;23.30;99.90;23.70;96816.00;;;;5063823;28;20219;-66
2022/06/23 11:24:27;;;;;;;6.47;4.77;;;23.10;99.90;23.70;96818.00;;;;5068867;28;20200;-65
2022/06/23 11:27:28;;;;;;;6.50;4.57;;;22.90;99.90;23.50;96808.00;;;;5071614;28;20663;-66
2022/06/23 11:30:22;;;;;;;7.13;5.27;;;22.80;99.90;23.60;96812.00;;;;5070029;28;20231;-67
2022/06/23 11:33:33;;;;;;;5.47;4.93;;;22.80;99.90;24.00;96804.00;;;;5073201;28;20208;-67
2022/06/23 11:36:55;;;;;;;4.60;4.20;;;22.80;99.90;23.90;96811.00;;;;5072875;28;20195;-66
2022/06/23 11:40:09;;;;;;;4.17;3.77;;;22.80;99.90;24.10;96806.00;;;;5063905;28;20208;-66
2022/06/23 11:43:15;;;;;;;6.70;5.07;;;22.80;99.90;23.50;96798.00;;;;5063987;28;20284;-63
2022/06/23 11:46:24;;;;;;;5.73;4.73;;;23.00;99.90;23.70;96808.00;;;;5064592;28;20242;-65
2022/06/23 11:49:35;;;;;;;11.30;5.57;;;22.70;99.90;23.80;96799.00;;;;5065824;28;20725;-66
2022/06/23 11:52:42;;;;;;;5.57;4.80;;;22.70;99.90;23.90;96801.00;;;;5064114;28;20218;-66
2022/06/23 11:55:37;;;;;;;6.07;5.47;;;22.80;99.90;24.10;96802.00;;;;5064851;28;20223;-66
2022/06/23 11:58:48;;;;;;;7.07;4.83;;;22.80;99.90;24.30;96804.00;;;;5066385;28;20201;-66
2022/06/23 12:01:38;;;;;;;5.57;4.93;;;22.90;99.90;24.20;96800.00;;;;5064834;28;20733;-65
2022/06/23 12:04:59;;;;;;;7.57;4.83;;;22.90;99.90;24.30;96799.00;;;;5065607;28;20231;-66
2022/06/23 12:08:15;;;;;;;6.67;5.03;;;22.80;99.90;24.40;96802.00;;;;5064979;28;20196;-67
2022/06/23 12:11:05;;;;;;;7.93;5.30;;;22.90;99.90;24.30;96809.00;;;;5064993;28;20203;-66
2022/06/23 12:13:55;;;;;;;6.07;5.13;;;23.00;99.90;24.10;96805.00;;;;5069449;28;20210;-66
2022/06/23 12:17:06;;;;;;;6.13;4.17;;;23.00;99.90;24.20;96808.00;;;;5063253;28;20204;-66
2022/06/23 12:20:02;;;;;;;5.93;4.77;;;23.10;99.90;24.10;96807.00;;;;5060368;28;20314;-65
2022/06/23 12:22:59;;;;;;;4.80;4.07;;;23.00;99.90;24.10;96806.00;;;;5062662;28;20220;-67
2022/06/23 12:26:01;;;;;;;6.50;3.97;;;23.00;99.90;24.40;96805.00;;;;5064269;28;20223;-66
2022/06/23 12:29:00;;;;;;;4.27;3.93;;;22.90;99.90;25.10;96799.00;;;;5062480;28;20227;-67
2022/06/23 12:31:59;;;;;;;4.10;3.70;;;23.10;99.90;25.20;96796.00;;;;5064441;28;20212;-66
2022/06/23 12:34:58;;;;;;;4.63;3.07;;;23.30;99.90;25.00;96796.00;;;;5060993;28;20216;-67
2022/06/23 12:37:57;;;;;;;5.70;4.33;;;23.40;99.90;24.70;96795.00;;;;5059427;28;20265;-67
2022/06/23 12:40:50;;;;;;;6.97;5.33;;;23.50;99.90;24.80;96797.00;;;;5063726;28;20204;-66
2022/06/23 12:43:48;;;;;;;10.33;4.27;;;23.20;99.90;24.40;96789.00;;;;5067043;28;20234;-66
2022/06/23 12:46:45;;;;;;;4.27;3.37;;;23.50;99.90;24.00;96796.00;;;;5063474;28;20200;-66
2022/06/23 12:50:06;;;;;;;6.90;4.10;;;23.30;99.90;25.10;96794.00;;;;5064429;28;20349;-67
2022/06/23 12:53:14;;;;;;;4.17;3.77;;;23.30;99.90;25.10;96792.00;;;;5062498;28;20207;-67
2022/06/23 12:56:26;;;;;;;5.87;4.50;;;23.50;99.90;25.50;96791.00;;;;5062513;28;20224;-67
2022/06/23 12:59:26;;;;;;;4.60;3.47;;;23.60;99.90;25.20;96777.00;;;;5062679;28;20204;-67
2022/06/23 13:02:28;;;;;;;4.83;4.33;;;23.80;99.90;24.50;96775.00;;;;5062807;28;20201;-66
2022/06/23 13:05:27;;;;;;;4.37;3.30;;;23.70;99.90;24.90;96765.00;;;;5064825;28;20269;-67
2022/06/23 13:08:23;;;;;;;4.00;3.50;;;23.50;99.90;25.00;96730.00;;;;5064622;28;20217;-67
2022/06/23 13:11:17;;;;;;;7.13;3.47;;;23.80;99.90;26.10;96715.00;;;;5062431;28;20207;-66
2022/06/23 13:14:15;;;;;;;4.67;3.40;;;24.40;99.90;27.40;96775.00;;;;5064110;28;20200;-68
2022/06/23 13:17:20;;;;;;;4.57;3.40;;;25.00;99.90;28.10;96782.00;;;;5062796;28;20214;-68
2022/06/23 13:20:23;;;;;;;6.83;4.40;;;25.70;99.90;28.20;96752.00;;;;5062578;28;20579;-68
2022/06/23 13:23:17;;;;;;;6.43;4.30;;;25.80;99.90;29.10;96771.00;;;;5061669;28;20232;-68
2022/06/23 13:26:16;;;;;;;6.03;3.50;;;26.20;99.90;29.70;96750.00;;;;5063441;28;20226;-68